sensor_id;sensor_type;location;lat;lon;timestamp;temperature;humidity
35240;DHT22;21376;50.954;4.716;2024-02-14T00:24:20;9.70;99.90
35240;DHT22;21376;50.954;4.716;2024-02-14T00:26:49;9.80;99.90
35240;DHT22;21376;50.954;4.716;2024-02-14T00:29:18;9.80;99.90
35240;DHT22;21376;50.954;4.716;2024-02-14T00:31:45;9.80;99.90
35240;DHT22;21376;50.954;4.716;2024-02-14T00:34:14;9.80;99.90
35240;DHT22;21376;50.954;4.716;2024-02-14T00:36:43;9.80;99.90
35240;DHT22;21376;50.954;4.716;2024-02-14T00:39:09;9.80;99.90
35240;DHT22;21376;50.954;4.716;2024-02-14T00:41:52;9.90;99.90
35240;DHT22;21376;50.954;4.716;2024-02-14T00:44:34;9.90;99.90
35240;DHT22;21376;50.954;4.716;2024-02-14T00:47:14;9.90;99.90
35240;DHT22;21376;50.954;4.716;2024-02-14T00:49:41;9.90;99.90
35240;DHT22;21376;50.954;4.716;2024-02-14T00:52:10;9.90;99.90
35240;DHT22;21376;50.954;4.716;2024-02-14T00:54:38;10.00;99.90
35240;DHT22;21376;50.954;4.716;2024-02-14T00:57:06;10.00;99.90
35240;DHT22;21376;50.954;4.716;2024-02-14T00:59:37;10.00;99.90
35240;DHT22;21376;50.954;4.716;2024-02-14T01:02:08;9.90;99.90
35240;DHT22;21376;50.954;4.716;2024-02-14T01:04:34;10.00;99.90
35240;DHT22;21376;50.954;4.716;2024-02-14T01:07:06;9.90;99.90
35240;DHT22;21376;50.954;4.716;2024-02-14T01:09:32;10.10;99.90
35240;DHT22;21376;50.954;4.716;2024-02-14T01:12:01;10.00;99.90
35240;DHT22;21376;50.954;4.716;2024-02-14T01:14:44;10.00;99.90
35240;DHT22;21376;50.954;4.716;2024-02-14T01:17:10;10.00;99.90
35240;DHT22;21376;50.954;4.716;2024-02-14T01:19:37;10.00;99.90
35240;DHT22;21376;50.954;4.716;2024-02-14T01:22:06;10.10;99.90
35240;DHT22;21376;50.954;4.716;2024-02-14T01:24:43;10.00;99.90
35240;DHT22;21376;50.954;4.716;2024-02-14T01:27:12;10.10;99.90
35240;DHT22;21376;50.954;4.716;2024-02-14T01:29:46;10.10;99.90
35240;DHT22;21376;50.954;4.716;2024-02-14T01:32:28;10.00;99.90
35240;DHT22;21376;50.954;4.716;2024-02-14T01:34:57;10.10;99.90
35240;DHT22;21376;50.954;4.716;2024-02-14T01:37:23;10.10;99.90
35240;DHT22;21376;50.954;4.716;2024-02-14T01:39:49;10.10;99.90
35240;DHT22;21376;50.954;4.716;2024-02-14T01:42:20;10.20;99.90
35240;DHT22;21376;50.954;4.716;2024-02-14T01:44:53;10.10;99.90
35240;DHT22;21376;50.954;4.716;2024-02-14T01:47:20;10.10;99.90
35240;DHT22;21376;50.954;4.716;2024-02-14T01:49:49;10.10;99.90
35240;DHT22;21376;50.954;4.716;2024-02-14T01:52:18;10.10;99.90
35240;DHT22;21376;50.954;4.716;2024-02-14T01:54:47;10.20;99.90
35240;DHT22;21376;50.954;4.716;2024-02-14T01:57:34;10.20;99.90
35240;DHT22;21376;50.954;4.716;2024-02-14T02:00:03;10.10;99.90
35240;DHT22;21376;50.954;4.716;2024-02-14T02:02:46;10.00;99.90
35240;DHT22;21376;50.954;4.716;2024-02-14T02:05:21;10.00;99.90
35240;DHT22;21376;50.954;4.716;2024-02-14T02:07:50;10.00;99.90
35240;DHT22;21376;50.954;4.716;2024-02-14T02:10:18;9.80;99.90
35240;DHT22;21376;50.954;4.716;2024-02-14T02:12:49;9.80;99.90
35240;DHT22;21376;50.954;4.716;2024-02-14T02:15:19;9.80;99.90
35240;DHT22;21376;50.954;4.716;2024-02-14T02:17:48;9.80;99.90
35240;DHT22;21376;50.954;4.716;2024-02-14T02:20:21;9.70;99.90
35240;DHT22;21376;50.954;4.716;2024-02-14T02:22:47;9.80;99.90
35240;DHT22;21376;50.954;4.716;2024-02-14T02:25:19;9.80;99.90
35240;DHT22;21376;50.954;4.716;2024-02-14T02:27:53;9.80;99.90
35240;DHT22;21376;50.954;4.716;2024-02-14T02:30:25;9.80;99.90
35240;DHT22;21376;50.954;4.716;2024-02-14T02:32:54;9.80;99.90
35240;DHT22;21376;50.954;4.716;2024-02-14T02:35:23;9.70;99.90
35240;DHT22;21376;50.954;4.716;2024-02-14T02:41:20;9.80;99.90
35240;DHT22;21376;50.954;4.716;2024-02-14T02:43:46;9.90;99.90
35240;DHT22;21376;50.954;4.716;2024-02-14T02:49:54;9.80;99.90
35240;DHT22;21376;50.954;4.716;2024-02-14T02:58:55;9.90;99.90
35240;DHT22;21376;50.954;4.716;2024-02-14T03:01:21;9.90;99.90
35240;DHT22;21376;50.954;4.716;2024-02-14T03:03:49;9.90;99.90
35240;DHT22;21376;50.954;4.716;2024-02-14T03:06:16;9.80;99.90
35240;DHT22;21376;50.954;4.716;2024-02-14T03:08:45;9.80;99.90
35240;DHT22;21376;50.954;4.716;2024-02-14T03:11:15;9.90;99.90
35240;DHT22;21376;50.954;4.716;2024-02-14T03:13:41;9.90;99.90
35240;DHT22;21376;50.954;4.716;2024-02-14T03:16:15;9.90;99.90
35240;DHT22;21376;50.954;4.716;2024-02-14T03:18:45;9.80;99.90
35240;DHT22;21376;50.954;4.716;2024-02-14T03:21:14;9.80;99.90
35240;DHT22;21376;50.954;4.716;2024-02-14T03:23:40;9.80;99.90
35240;DHT22;21376;50.954;4.716;2024-02-14T03:26:23;9.90;99.90
35240;DHT22;21376;50.954;4.716;2024-02-14T03:28:52;9.90;99.90
35240;DHT22;21376;50.954;4.716;2024-02-14T03:31:22;9.90;99.90
35240;DHT22;21376;50.954;4.716;2024-02-14T03:33:52;9.90;99.90
35240;DHT22;21376;50.954;4.716;2024-02-14T03:36:51;9.90;99.90
35240;DHT22;21376;50.954;4.716;2024-02-14T03:39:21;10.00;99.90
35240;DHT22;21376;50.954;4.716;2024-02-14T03:41:53;9.90;99.90
35240;DHT22;21376;50.954;4.716;2024-02-14T03:44:23;9.80;99.90
35240;DHT22;21376;50.954;4.716;2024-02-14T03:46:51;9.80;99.90
35240;DHT22;21376;50.954;4.716;2024-02-14T03:49:18;9.80;99.90
35240;DHT22;21376;50.954;4.716;2024-02-14T03:51:55;9.70;99.90
35240;DHT22;21376;50.954;4.716;2024-02-14T03:54:24;9.70;99.90
35240;DHT22;21376;50.954;4.716;2024-02-14T03:56:54;9.70;99.90
35240;DHT22;21376;50.954;4.716;2024-02-14T03:59:24;9.70;99.90
35240;DHT22;21376;50.954;4.716;2024-02-14T04:01:50;9.80;99.90
35240;DHT22;21376;50.954;4.716;2024-02-14T04:04:22;9.90;99.90
35240;DHT22;21376;50.954;4.716;2024-02-14T04:06:51;9.90;99.90
35240;DHT22;21376;50.954;4.716;2024-02-14T04:09:21;9.90;99.90
35240;DHT22;21376;50.954;4.716;2024-02-14T04:11:57;9.80;99.90
35240;DHT22;21376;50.954;4.716;2024-02-14T04:14:22;9.80;99.90
35240;DHT22;21376;50.954;4.716;2024-02-14T04:16:48;9.80;99.90
35240;DHT22;21376;50.954;4.716;2024-02-14T04:19:17;9.80;99.90
35240;DHT22;21376;50.954;4.716;2024-02-14T04:21:46;9.90;99.90
35240;DHT22;21376;50.954;4.716;2024-02-14T04:24:12;9.90;99.90
35240;DHT22;21376;50.954;4.716;2024-02-14T04:26:38;9.90;99.90
35240;DHT22;21376;50.954;4.716;2024-02-14T04:32:30;9.90;99.90
35240;DHT22;21376;50.954;4.716;2024-02-14T04:35:01;9.90;99.90
35240;DHT22;21376;50.954;4.716;2024-02-14T04:37:30;9.90;99.90
35240;DHT22;21376;50.954;4.716;2024-02-14T04:40:00;10.00;99.90
35240;DHT22;21376;50.954;4.716;2024-02-14T04:42:28;10.00;99.90
35240;DHT22;21376;50.954;4.716;2024-02-14T04:44:57;10.00;99.90
35240;DHT22;21376;50.954;4.716;2024-02-14T04:47:25;10.00;99.90
35240;DHT22;21376;50.954;4.716;2024-02-14T04:49:51;10.00;99.90
35240;DHT22;21376;50.954;4.716;2024-02-14T04:52:18;10.00;99.90
35240;DHT22;21376;50.954;4.716;2024-02-14T04:54:45;10.00;99.90
35240;DHT22;21376;50.954;4.716;2024-02-14T04:57:11;10.10;99.90
35240;DHT22;21376;50.954;4.716;2024-02-14T04:59:38;10.10;99.90
35240;DHT22;21376;50.954;4.716;2024-02-14T05:02:03;10.10;99.90
35240;DHT22;21376;50.954;4.716;2024-02-14T05:04:32;10.10;99.90
35240;DHT22;21376;50.954;4.716;2024-02-14T05:07:04;10.10;99.90
35240;DHT22;21376;50.954;4.716;2024-02-14T05:09:32;10.10;99.90
35240;DHT22;21376;50.954;4.716;2024-02-14T05:12:01;10.20;99.90
35240;DHT22;21376;50.954;4.716;2024-02-14T05:14:32;10.10;99.90
35240;DHT22;21376;50.954;4.716;2024-02-14T05:17:01;10.20;99.90
35240;DHT22;21376;50.954;4.716;2024-02-14T05:19:29;10.20;99.90
35240;DHT22;21376;50.954;4.716;2024-02-14T05:21:58;10.30;99.90
35240;DHT22;21376;50.954;4.716;2024-02-14T05:24:24;10.30;99.90
35240;DHT22;21376;50.954;4.716;2024-02-14T05:26:56;10.20;99.90
35240;DHT22;21376;50.954;4.716;2024-02-14T05:29:31;10.30;99.90
35240;DHT22;21376;50.954;4.716;2024-02-14T05:31:59;10.30;99.90
35240;DHT22;21376;50.954;4.716;2024-02-14T05:34:27;10.30;99.90
35240;DHT22;21376;50.954;4.716;2024-02-14T05:36:56;10.30;99.90
35240;DHT22;21376;50.954;4.716;2024-02-14T05:39:25;10.30;99.90
35240;DHT22;21376;50.954;4.716;2024-02-14T05:42:08;10.30;99.90
35240;DHT22;21376;50.954;4.716;2024-02-14T05:44:36;10.30;99.90
35240;DHT22;21376;50.954;4.716;2024-02-14T05:47:05;10.30;99.90
35240;DHT22;21376;50.954;4.716;2024-02-14T05:49:32;10.30;99.90
35240;DHT22;21376;50.954;4.716;2024-02-14T05:51:57;10.40;99.90
35240;DHT22;21376;50.954;4.716;2024-02-14T05:54:29;10.40;99.90
35240;DHT22;21376;50.954;4.716;2024-02-14T05:56:58;10.40;99.90
35240;DHT22;21376;50.954;4.716;2024-02-14T05:59:24;10.30;99.90
35240;DHT22;21376;50.954;4.716;2024-02-14T06:02:07;10.30;99.90
35240;DHT22;21376;50.954;4.716;2024-02-14T06:04:38;10.50;99.90
35240;DHT22;21376;50.954;4.716;2024-02-14T06:07:07;10.50;99.90
35240;DHT22;21376;50.954;4.716;2024-02-14T06:09:38;10.60;99.90
35240;DHT22;21376;50.954;4.716;2024-02-14T06:12:23;10.60;99.90
35240;DHT22;21376;50.954;4.716;2024-02-14T06:14:51;10.50;99.90
35240;DHT22;21376;50.954;4.716;2024-02-14T06:17:18;10.60;99.90
35240;DHT22;21376;50.954;4.716;2024-02-14T06:19:45;10.60;99.90
35240;DHT22;21376;50.954;4.716;2024-02-14T06:22:14;10.60;99.90
35240;DHT22;21376;50.954;4.716;2024-02-14T06:24:40;10.60;99.90
35240;DHT22;21376;50.954;4.716;2024-02-14T06:27:17;10.70;99.90
35240;DHT22;21376;50.954;4.716;2024-02-14T06:29:47;10.70;99.90
35240;DHT22;21376;50.954;4.716;2024-02-14T06:32:16;10.70;99.90
35240;DHT22;21376;50.954;4.716;2024-02-14T06:34:45;10.70;99.90
35240;DHT22;21376;50.954;4.716;2024-02-14T06:37:13;10.70;99.90
35240;DHT22;21376;50.954;4.716;2024-02-14T06:39:42;10.70;99.90
35240;DHT22;21376;50.954;4.716;2024-02-14T06:42:17;10.70;99.90
35240;DHT22;21376;50.954;4.716;2024-02-14T06:44:46;10.80;99.90
35240;DHT22;21376;50.954;4.716;2024-02-14T06:47:29;10.90;99.90
35240;DHT22;21376;50.954;4.716;2024-02-14T06:50:01;11.00;99.90
35240;DHT22;21376;50.954;4.716;2024-02-14T06:52:30;11.00;99.90
35240;DHT22;21376;50.954;4.716;2024-02-14T06:54:56;11.10;99.90
35240;DHT22;21376;50.954;4.716;2024-02-14T06:57:33;10.90;99.90
35240;DHT22;21376;50.954;4.716;2024-02-14T07:00:03;11.00;99.90
35240;DHT22;21376;50.954;4.716;2024-02-14T07:02:34;10.90;99.90
35240;DHT22;21376;50.954;4.716;2024-02-14T07:05:03;11.00;99.90
35240;DHT22;21376;50.954;4.716;2024-02-14T07:07:29;11.00;99.90
35240;DHT22;21376;50.954;4.716;2024-02-14T07:09:57;10.90;99.90
35240;DHT22;21376;50.954;4.716;2024-02-14T07:12:26;11.00;99.90
35240;DHT22;21376;50.954;4.716;2024-02-14T07:14:55;11.00;99.90
35240;DHT22;21376;50.954;4.716;2024-02-14T07:17:24;11.00;99.90
35240;DHT22;21376;50.954;4.716;2024-02-14T07:19:53;11.00;99.90
35240;DHT22;21376;50.954;4.716;2024-02-14T07:22:20;11.10;99.90
35240;DHT22;21376;50.954;4.716;2024-02-14T07:28:12;11.10;99.90
35240;DHT22;21376;50.954;4.716;2024-02-14T07:30:41;11.00;99.90
35240;DHT22;21376;50.954;4.716;2024-02-14T07:33:10;11.00;99.90
35240;DHT22;21376;50.954;4.716;2024-02-14T07:35:38;11.10;99.90
35240;DHT22;21376;50.954;4.716;2024-02-14T07:38:08;11.00;99.90
35240;DHT22;21376;50.954;4.716;2024-02-14T07:40:37;11.10;99.90
35240;DHT22;21376;50.954;4.716;2024-02-14T07:43:09;11.20;99.90
35240;DHT22;21376;50.954;4.716;2024-02-14T07:45:37;11.20;99.90
35240;DHT22;21376;50.954;4.716;2024-02-14T07:48:06;11.20;99.90
35240;DHT22;21376;50.954;4.716;2024-02-14T07:54:01;11.30;99.90
35240;DHT22;21376;50.954;4.716;2024-02-14T07:56:29;11.20;99.90
35240;DHT22;21376;50.954;4.716;2024-02-14T07:58:55;11.20;99.90
35240;DHT22;21376;50.954;4.716;2024-02-14T08:01:25;11.30;99.90
35240;DHT22;21376;50.954;4.716;2024-02-14T08:03:54;11.40;99.90
35240;DHT22;21376;50.954;4.716;2024-02-14T08:23:51;11.70;99.90
35240;DHT22;21376;50.954;4.716;2024-02-14T08:26:17;11.70;99.90
35240;DHT22;21376;50.954;4.716;2024-02-14T08:28:46;11.70;99.90
35240;DHT22;21376;50.954;4.716;2024-02-14T08:31:15;11.60;99.90
35240;DHT22;21376;50.954;4.716;2024-02-14T08:33:42;11.60;99.90
35240;DHT22;21376;50.954;4.716;2024-02-14T08:39:30;11.50;99.90
35240;DHT22;21376;50.954;4.716;2024-02-14T08:41:59;11.40;99.90
35240;DHT22;21376;50.954;4.716;2024-02-14T08:44:31;11.30;99.90
35240;DHT22;21376;50.954;4.716;2024-02-14T08:47:00;11.30;99.90
35240;DHT22;21376;50.954;4.716;2024-02-14T08:49:29;11.30;99.90
35240;DHT22;21376;50.954;4.716;2024-02-14T08:51:58;11.40;99.90
35240;DHT22;21376;50.954;4.716;2024-02-14T08:58:01;11.40;99.90
35240;DHT22;21376;50.954;4.716;2024-02-14T09:00:45;11.30;99.90
35240;DHT22;21376;50.954;4.716;2024-02-14T09:03:11;11.40;99.90
35240;DHT22;21376;50.954;4.716;2024-02-14T09:05:44;11.40;99.90
35240;DHT22;21376;50.954;4.716;2024-02-14T09:08:15;11.40;99.90
35240;DHT22;21376;50.954;4.716;2024-02-14T09:10:41;11.40;99.90
35240;DHT22;21376;50.954;4.716;2024-02-14T09:13:10;11.30;99.90
35240;DHT22;21376;50.954;4.716;2024-02-14T09:15:39;11.40;99.90
35240;DHT22;21376;50.954;4.716;2024-02-14T09:18:05;11.40;99.90
35240;DHT22;21376;50.954;4.716;2024-02-14T09:20:34;11.40;99.90
35240;DHT22;21376;50.954;4.716;2024-02-14T09:31:21;11.40;99.90
35240;DHT22;21376;50.954;4.716;2024-02-14T09:33:53;11.20;99.90
35240;DHT22;21376;50.954;4.716;2024-02-14T09:36:25;11.20;99.90
35240;DHT22;21376;50.954;4.716;2024-02-14T09:38:54;11.20;99.90
35240;DHT22;21376;50.954;4.716;2024-02-14T09:41:51;11.30;99.90
35240;DHT22;21376;50.954;4.716;2024-02-14T09:57:37;11.60;99.90
35240;DHT22;21376;50.954;4.716;2024-02-14T10:00:06;11.50;99.90
35240;DHT22;21376;50.954;4.716;2024-02-14T10:02:35;11.50;99.90
35240;DHT22;21376;50.954;4.716;2024-02-14T10:05:02;11.40;99.90
35240;DHT22;21376;50.954;4.716;2024-02-14T10:07:28;11.50;99.90
35240;DHT22;21376;50.954;4.716;2024-02-14T10:10:05;11.50;99.90
35240;DHT22;21376;50.954;4.716;2024-02-14T10:12:30;11.60;99.90
35240;DHT22;21376;50.954;4.716;2024-02-14T10:15:07;11.60;99.90
35240;DHT22;21376;50.954;4.716;2024-02-14T10:17:39;11.50;99.90
35240;DHT22;21376;50.954;4.716;2024-02-14T10:20:06;11.50;99.90
35240;DHT22;21376;50.954;4.716;2024-02-14T10:22:38;11.60;99.90
35240;DHT22;21376;50.954;4.716;2024-02-14T10:25:07;11.60;99.90
35240;DHT22;21376;50.954;4.716;2024-02-14T10:27:37;11.60;99.90
35240;DHT22;21376;50.954;4.716;2024-02-14T10:30:13;11.50;99.90
35240;DHT22;21376;50.954;4.716;2024-02-14T10:32:43;11.60;99.90
35240;DHT22;21376;50.954;4.716;2024-02-14T10:35:19;11.60;99.90
35240;DHT22;21376;50.954;4.716;2024-02-14T10:37:49;11.60;99.90
35240;DHT22;21376;50.954;4.716;2024-02-14T10:40:19;11.70;99.90
35240;DHT22;21376;50.954;4.716;2024-02-14T10:42:49;11.80;99.90
35240;DHT22;21376;50.954;4.716;2024-02-14T10:45:19;11.90;99.90
35240;DHT22;21376;50.954;4.716;2024-02-14T10:47:47;11.80;99.90
35240;DHT22;21376;50.954;4.716;2024-02-14T10:50:18;11.80;99.90
35240;DHT22;21376;50.954;4.716;2024-02-14T10:52:49;11.90;99.90
35240;DHT22;21376;50.954;4.716;2024-02-14T10:55:20;11.90;99.90
35240;DHT22;21376;50.954;4.716;2024-02-14T10:57:55;11.90;99.90
35240;DHT22;21376;50.954;4.716;2024-02-14T11:00:22;11.90;99.90
35240;DHT22;21376;50.954;4.716;2024-02-14T12:33:26;12.30;99.90
35240;DHT22;21376;50.954;4.716;2024-02-14T12:36:10;12.40;99.90
35240;DHT22;21376;50.954;4.716;2024-02-14T12:38:39;12.40;99.90
35240;DHT22;21376;50.954;4.716;2024-02-14T12:41:08;12.50;99.90
35240;DHT22;21376;50.954;4.716;2024-02-14T12:43:37;12.50;99.90
35240;DHT22;21376;50.954;4.716;2024-02-14T12:46:08;12.50;99.90
35240;DHT22;21376;50.954;4.716;2024-02-14T12:48:38;12.50;99.90
35240;DHT22;21376;50.954;4.716;2024-02-14T12:51:03;12.50;99.90
35240;DHT22;21376;50.954;4.716;2024-02-14T12:53:32;12.50;99.90
35240;DHT22;21376;50.954;4.716;2024-02-14T12:56:01;12.60;99.90
35240;DHT22;21376;50.954;4.716;2024-02-14T12:58:32;12.60;99.90
35240;DHT22;21376;50.954;4.716;2024-02-14T13:01:00;12.60;99.90
35240;DHT22;21376;50.954;4.716;2024-02-14T13:03:29;12.60;99.90
35240;DHT22;21376;50.954;4.716;2024-02-14T13:06:27;12.80;99.90
35240;DHT22;21376;50.954;4.716;2024-02-14T13:12:20;12.80;99.90
35240;DHT22;21376;50.954;4.716;2024-02-14T13:14:49;12.70;99.90
35240;DHT22;21376;50.954;4.716;2024-02-14T13:17:17;12.70;99.90
35240;DHT22;21376;50.954;4.716;2024-02-14T13:19:46;12.70;99.90
35240;DHT22;21376;50.954;4.716;2024-02-14T13:22:17;12.70;99.90
35240;DHT22;21376;50.954;4.716;2024-02-14T13:24:46;12.70;99.90
35240;DHT22;21376;50.954;4.716;2024-02-14T13:27:15;12.80;99.90
35240;DHT22;21376;50.954;4.716;2024-02-14T13:29:41;12.80;99.90
35240;DHT22;21376;50.954;4.716;2024-02-14T13:32:08;12.70;99.90
35240;DHT22;21376;50.954;4.716;2024-02-14T13:34:37;12.80;99.90
35240;DHT22;21376;50.954;4.716;2024-02-14T13:37:02;12.70;99.90
35240;DHT22;21376;50.954;4.716;2024-02-14T13:39:31;12.70;99.90
35240;DHT22;21376;50.954;4.716;2024-02-14T13:41:58;12.70;99.90
35240;DHT22;21376;50.954;4.716;2024-02-14T13:44:51;12.70;99.90
35240;DHT22;21376;50.954;4.716;2024-02-14T13:47:20;12.70;99.90
35240;DHT22;21376;50.954;4.716;2024-02-14T13:49:49;12.70;99.90
35240;DHT22;21376;50.954;4.716;2024-02-14T13:52:20;12.70;99.90
35240;DHT22;21376;50.954;4.716;2024-02-14T13:54:49;12.70;99.90
35240;DHT22;21376;50.954;4.716;2024-02-14T13:57:17;12.70;99.90
35240;DHT22;21376;50.954;4.716;2024-02-14T13:59:46;12.80;99.90
35240;DHT22;21376;50.954;4.716;2024-02-14T14:02:15;12.70;99.90
35240;DHT22;21376;50.954;4.716;2024-02-14T14:04:41;12.70;99.90
35240;DHT22;21376;50.954;4.716;2024-02-14T14:07:07;12.70;99.90
35240;DHT22;21376;50.954;4.716;2024-02-14T14:09:34;12.60;99.90
35240;DHT22;21376;50.954;4.716;2024-02-14T14:12:04;12.70;99.90
35240;DHT22;21376;50.954;4.716;2024-02-14T14:14:33;12.70;99.90
35240;DHT22;21376;50.954;4.716;2024-02-14T14:16:58;12.80;99.90
35240;DHT22;21376;50.954;4.716;2024-02-14T14:19:26;12.80;99.90
35240;DHT22;21376;50.954;4.716;2024-02-14T14:21:57;12.80;99.90
35240;DHT22;21376;50.954;4.716;2024-02-14T14:24:59;12.80;99.90
35240;DHT22;21376;50.954;4.716;2024-02-14T14:27:28;12.90;99.90
35240;DHT22;21376;50.954;4.716;2024-02-14T14:29:55;12.80;99.90
35240;DHT22;21376;50.954;4.716;2024-02-14T14:32:23;12.90;99.90
35240;DHT22;21376;50.954;4.716;2024-02-14T14:34:52;12.90;99.90
35240;DHT22;21376;50.954;4.716;2024-02-14T14:37:20;12.80;99.90
35240;DHT22;21376;50.954;4.716;2024-02-14T14:40:01;12.90;99.90
35240;DHT22;21376;50.954;4.716;2024-02-14T14:42:35;13.00;99.90
35240;DHT22;21376;50.954;4.716;2024-02-14T14:45:04;13.00;99.90
35240;DHT22;21376;50.954;4.716;2024-02-14T14:47:33;13.00;99.90
35240;DHT22;21376;50.954;4.716;2024-02-14T14:50:28;13.10;99.90
35240;DHT22;21376;50.954;4.716;2024-02-14T14:52:55;13.10;99.90
35240;DHT22;21376;50.954;4.716;2024-02-14T14:55:25;13.00;99.90
35240;DHT22;21376;50.954;4.716;2024-02-14T14:57:51;13.00;99.90
35240;DHT22;21376;50.954;4.716;2024-02-14T15:00:32;13.00;99.90
35240;DHT22;21376;50.954;4.716;2024-02-14T15:03:01;13.10;99.90
35240;DHT22;21376;50.954;4.716;2024-02-14T15:05:30;13.00;99.90
35240;DHT22;21376;50.954;4.716;2024-02-14T15:07:57;13.00;99.90
35240;DHT22;21376;50.954;4.716;2024-02-14T15:10:42;13.10;99.90
35240;DHT22;21376;50.954;4.716;2024-02-14T15:13:13;13.10;99.90
35240;DHT22;21376;50.954;4.716;2024-02-14T15:19:00;13.20;99.90
35240;DHT22;21376;50.954;4.716;2024-02-14T15:21:26;13.20;99.90
35240;DHT22;21376;50.954;4.716;2024-02-14T15:24:03;13.20;99.90
35240;DHT22;21376;50.954;4.716;2024-02-14T15:26:35;13.20;99.90
35240;DHT22;21376;50.954;4.716;2024-02-14T15:29:33;13.30;99.90
35240;DHT22;21376;50.954;4.716;2024-02-14T15:32:33;13.30;99.90
35240;DHT22;21376;50.954;4.716;2024-02-14T15:35:20;13.20;99.90
35240;DHT22;21376;50.954;4.716;2024-02-14T15:37:47;13.10;99.90
35240;DHT22;21376;50.954;4.716;2024-02-14T15:40:21;13.20;99.90
35240;DHT22;21376;50.954;4.716;2024-02-14T15:42:51;13.10;99.90
35240;DHT22;21376;50.954;4.716;2024-02-14T15:45:20;13.10;99.90
35240;DHT22;21376;50.954;4.716;2024-02-14T15:47:48;13.10;99.90
35240;DHT22;21376;50.954;4.716;2024-02-14T15:50:17;13.20;99.90
35240;DHT22;21376;50.954;4.716;2024-02-14T15:52:46;13.20;99.90
35240;DHT22;21376;50.954;4.716;2024-02-14T15:55:15;13.20;99.90
35240;DHT22;21376;50.954;4.716;2024-02-14T15:57:42;13.10;99.90
35240;DHT22;21376;50.954;4.716;2024-02-14T16:00:12;13.10;99.90
35240;DHT22;21376;50.954;4.716;2024-02-14T16:02:44;13.10;99.90
35240;DHT22;21376;50.954;4.716;2024-02-14T16:05:11;13.20;99.90
35240;DHT22;21376;50.954;4.716;2024-02-14T16:26:12;13.10;99.90
35240;DHT22;21376;50.954;4.716;2024-02-14T16:28:40;13.10;99.90
35240;DHT22;21376;50.954;4.716;2024-02-14T16:31:08;13.00;99.90
35240;DHT22;21376;50.954;4.716;2024-02-14T16:33:34;12.90;99.90
35240;DHT22;21376;50.954;4.716;2024-02-14T16:35:59;13.00;99.90
35240;DHT22;21376;50.954;4.716;2024-02-14T16:38:33;13.00;99.90
35240;DHT22;21376;50.954;4.716;2024-02-14T16:41:02;13.10;99.90
35240;DHT22;21376;50.954;4.716;2024-02-14T16:43:31;13.00;99.90
35240;DHT22;21376;50.954;4.716;2024-02-14T16:46:00;13.00;99.90
35240;DHT22;21376;50.954;4.716;2024-02-14T16:48:29;13.00;99.90
35240;DHT22;21376;50.954;4.716;2024-02-14T16:50:59;13.00;99.90
35240;DHT22;21376;50.954;4.716;2024-02-14T16:53:31;13.00;99.90
35240;DHT22;21376;50.954;4.716;2024-02-14T16:56:00;12.90;99.90
35240;DHT22;21376;50.954;4.716;2024-02-14T16:58:29;12.90;99.90
35240;DHT22;21376;50.954;4.716;2024-02-14T17:00:54;12.90;99.90
35240;DHT22;21376;50.954;4.716;2024-02-14T17:03:30;12.80;99.90
35240;DHT22;21376;50.954;4.716;2024-02-14T17:05:59;12.80;99.90
35240;DHT22;21376;50.954;4.716;2024-02-14T17:08:31;12.80;99.90
35240;DHT22;21376;50.954;4.716;2024-02-14T17:11:00;12.80;99.90
35240;DHT22;21376;50.954;4.716;2024-02-14T17:13:28;12.80;99.90
35240;DHT22;21376;50.954;4.716;2024-02-14T17:15:57;12.80;99.90
35240;DHT22;21376;50.954;4.716;2024-02-14T17:18:26;12.70;99.90
35240;DHT22;21376;50.954;4.716;2024-02-14T17:20:57;12.70;99.90
35240;DHT22;21376;50.954;4.716;2024-02-14T17:23:38;12.70;99.90
35240;DHT22;21376;50.954;4.716;2024-02-14T17:26:05;12.60;99.90
35240;DHT22;21376;50.954;4.716;2024-02-14T17:28:35;12.70;99.90
35240;DHT22;21376;50.954;4.716;2024-02-14T17:31:04;12.80;99.90
35240;DHT22;21376;50.954;4.716;2024-02-14T17:33:31;12.80;99.90
35240;DHT22;21376;50.954;4.716;2024-02-14T17:36:21;12.80;99.90
35240;DHT22;21376;50.954;4.716;2024-02-14T17:38:55;12.80;99.90
35240;DHT22;21376;50.954;4.716;2024-02-14T17:41:27;12.90;99.90
35240;DHT22;21376;50.954;4.716;2024-02-14T17:43:56;12.90;99.90
35240;DHT22;21376;50.954;4.716;2024-02-14T17:46:32;12.90;99.90
35240;DHT22;21376;50.954;4.716;2024-02-14T17:49:01;12.80;99.90
35240;DHT22;21376;50.954;4.716;2024-02-14T17:51:28;12.80;99.90
35240;DHT22;21376;50.954;4.716;2024-02-14T17:54:00;12.90;99.90
35240;DHT22;21376;50.954;4.716;2024-02-14T17:56:38;12.80;99.90
35240;DHT22;21376;50.954;4.716;2024-02-14T17:59:06;12.80;99.90
35240;DHT22;21376;50.954;4.716;2024-02-14T18:01:35;12.80;99.90
35240;DHT22;21376;50.954;4.716;2024-02-14T18:04:08;12.90;99.90
35240;DHT22;21376;50.954;4.716;2024-02-14T18:13:50;12.90;99.90
35240;DHT22;21376;50.954;4.716;2024-02-14T18:16:22;12.90;99.90
35240;DHT22;21376;50.954;4.716;2024-02-14T18:18:49;13.00;99.90
35240;DHT22;21376;50.954;4.716;2024-02-14T18:21:18;12.80;99.90
35240;DHT22;21376;50.954;4.716;2024-02-14T18:24:03;12.90;99.90
35240;DHT22;21376;50.954;4.716;2024-02-14T18:26:33;12.90;99.90
35240;DHT22;21376;50.954;4.716;2024-02-14T18:29:04;12.90;99.90
35240;DHT22;21376;50.954;4.716;2024-02-14T18:31:31;12.80;99.90
35240;DHT22;21376;50.954;4.716;2024-02-14T18:33:57;12.80;99.90
35240;DHT22;21376;50.954;4.716;2024-02-14T18:36:27;12.90;99.90
35240;DHT22;21376;50.954;4.716;2024-02-14T18:39:23;12.70;99.90
35240;DHT22;21376;50.954;4.716;2024-02-14T18:41:55;12.80;99.90
35240;DHT22;21376;50.954;4.716;2024-02-14T18:44:24;12.80;99.90
35240;DHT22;21376;50.954;4.716;2024-02-14T18:46:53;12.80;99.90
35240;DHT22;21376;50.954;4.716;2024-02-14T18:49:28;12.70;99.90
35240;DHT22;21376;50.954;4.716;2024-02-14T18:51:56;12.80;99.90
35240;DHT22;21376;50.954;4.716;2024-02-14T18:58:09;12.90;99.90
35240;DHT22;21376;50.954;4.716;2024-02-14T19:00:35;12.90;99.90
35240;DHT22;21376;50.954;4.716;2024-02-14T19:03:04;12.90;99.90
35240;DHT22;21376;50.954;4.716;2024-02-14T19:05:34;12.90;99.90
35240;DHT22;21376;50.954;4.716;2024-02-14T19:08:03;13.00;99.90
35240;DHT22;21376;50.954;4.716;2024-02-14T19:10:32;13.00;99.90
35240;DHT22;21376;50.954;4.716;2024-02-14T19:13:01;13.00;99.90
35240;DHT22;21376;50.954;4.716;2024-02-14T19:16:03;13.10;99.90
35240;DHT22;21376;50.954;4.716;2024-02-14T19:21:51;13.00;99.90
35240;DHT22;21376;50.954;4.716;2024-02-14T19:24:20;12.90;99.90
35240;DHT22;21376;50.954;4.716;2024-02-14T19:26:49;12.90;99.90
35240;DHT22;21376;50.954;4.716;2024-02-14T19:29:18;13.00;99.90
35240;DHT22;21376;50.954;4.716;2024-02-14T19:31:47;12.90;99.90
35240;DHT22;21376;50.954;4.716;2024-02-14T19:34:16;13.00;99.90
35240;DHT22;21376;50.954;4.716;2024-02-14T19:36:45;13.00;99.90